Time;durP1;ratioP1;P1;durP2;ratioP2;P2;SDS_P1;SDS_P2;PMS_P1;PMS_P2;Temp;Humidity;BMP_temperature;BMP_pressure;BME280_temperature;BME280_humidity;BME280_pressure;Samples;Min_cycle;Max_cycle;Signal;HPM_P1;HPM_P2
2022/09/22 00:01:34;;;;;;;6.38;2.60;;;10.00;98.10;;;;;;4982224;28;20049;-66
2022/09/22 00:04:03;;;;;;;5.88;2.60;;;10.00;97.70;;;;;;4968132;28;20047;-65
2022/09/22 00:06:37;;;;;;;7.35;2.65;;;10.00;97.80;;;;;;4963210;28;20047;-67
2022/09/22 00:09:05;;;;;;;5.32;2.13;;;10.00;97.90;;;;;;4970218;28;20081;-67
2022/09/22 00:11:34;;;;;;;4.43;2.05;;;9.90;98.20;;;;;;4950500;28;20141;-66
2022/09/22 00:14:22;;;;;;;5.63;2.17;;;9.80;98.20;;;;;;4976992;28;20109;-67
2022/09/22 00:16:56;;;;;;;5.07;2.20;;;9.90;98.00;;;;;;4963745;28;20050;-67
2022/09/22 00:19:24;;;;;;;5.90;2.60;;;9.90;97.80;;;;;;4953160;28;20414;-67
2022/09/22 00:21:50;;;;;;;6.35;2.83;;;9.90;97.50;;;;;;4954108;28;20536;-66
2022/09/22 00:24:16;;;;;;;6.05;2.47;;;9.80;97.60;;;;;;4955628;28;20537;-66
2022/09/22 00:26:42;;;;;;;6.43;2.20;;;9.80;97.70;;;;;;4950467;28;20051;-66
2022/09/22 00:29:08;;;;;;;4.60;2.40;;;9.80;97.70;;;;;;4954199;28;20051;-65
2022/09/22 00:31:38;;;;;;;6.70;2.33;;;9.70;98.10;;;;;;4963691;28;20105;-67
2022/09/22 00:34:04;;;;;;;4.85;2.60;;;9.70;98.10;;;;;;4953487;28;20137;-66
2022/09/22 00:36:30;;;;;;;7.60;2.50;;;9.70;98.30;;;;;;4952648;28;20461;-66
2022/09/22 00:38:56;;;;;;;4.68;2.72;;;9.60;98.30;;;;;;4950554;28;20039;-66
2022/09/22 00:41:28;;;;;;;5.55;2.53;;;9.60;98.50;;;;;;4927731;28;20051;-66
2022/09/22 00:44:25;;;;;;;4.30;2.15;;;9.60;98.20;;;;;;4956903;28;21020;-66
2022/09/22 00:46:58;;;;;;;7.97;2.53;;;9.60;98.20;;;;;;4952132;28;20050;-66
2022/09/22 00:49:33;;;;;;;4.50;2.45;;;9.70;98.10;;;;;;4956757;28;20146;-66
2022/09/22 00:51:59;;;;;;;4.72;2.30;;;9.50;98.20;;;;;;4962637;28;20050;-67
2022/09/22 00:54:25;;;;;;;4.55;2.10;;;9.50;97.90;;;;;;4923920;28;20074;-67
2022/09/22 00:57:03;;;;;;;6.20;2.30;;;9.40;98.20;;;;;;4965709;28;20050;-66
2022/09/22 00:59:29;;;;;;;;;;;9.40;98.00;;;;;;4942337;28;20138;-65
2022/09/22 01:01:55;;;;;;;5.85;2.40;;;9.40;98.00;;;;;;4961570;28;20060;-67
2022/09/22 01:04:22;;;;;;;5.07;2.40;;;9.40;97.90;;;;;;4969740;28;20451;-66
2022/09/22 01:06:48;;;;;;;4.05;2.47;;;9.40;97.80;;;;;;4952177;28;20497;-66
2022/09/22 01:09:13;;;;;;;6.40;2.15;;;9.40;98.10;;;;;;4934545;28;20090;-67
2022/09/22 01:11:39;;;;;;;8.20;2.63;;;9.40;97.70;;;;;;4955828;28;20059;-66
2022/09/22 01:14:27;;;;;;;4.68;2.35;;;9.40;97.50;;;;;;4965219;28;20050;-66
2022/09/22 01:17:20;;;;;;;5.05;2.10;;;9.20;97.70;;;;;;4968045;28;20054;-66
2022/09/22 01:20:15;;;;;;;4.40;2.30;;;9.20;98.00;;;;;;4952758;28;20130;-66
2022/09/22 01:22:48;;;;;;;4.05;2.17;;;9.20;97.80;;;;;;4961759;28;20065;-65
2022/09/22 01:25:36;;;;;;;4.50;2.55;;;9.20;97.60;;;;;;4972322;28;20572;-66
2022/09/22 01:28:32;;;;;;;9.52;2.40;;;9.10;98.00;;;;;;4974749;28;20054;-66
2022/09/22 01:31:04;;;;;;;5.05;2.10;;;9.10;98.30;;;;;;4948452;28;20053;-66
2022/09/22 01:33:42;;;;;;;6.55;2.47;;;9.10;98.20;;;;;;4971998;28;20465;-67
2022/09/22 01:36:31;;;;;;;11.38;2.50;;;9.10;98.10;;;;;;4981350;28;20503;-65
2022/09/22 01:39:22;;;;;;;5.53;2.88;;;9.10;98.50;;;;;;4937674;28;20566;-65
2022/09/22 01:41:56;;;;;;;4.25;2.67;;;9.00;98.50;;;;;;4973381;28;20369;-66
2022/09/22 01:44:55;;;;;;;8.52;3.38;;;9.00;98.40;;;;;;4976839;28;20126;-66
2022/09/22 01:47:27;;;;;;;5.20;2.55;;;9.00;98.00;;;;;;4974014;28;20042;-66
2022/09/22 01:49:59;;;;;;;4.28;2.15;;;9.00;97.90;;;;;;4951986;28;20139;-66
2022/09/22 01:52:28;;;;;;;5.78;2.75;;;8.90;98.00;;;;;;4956180;28;20776;-66
2022/09/22 01:55:14;;;;;;;4.80;2.50;;;8.90;97.90;;;;;;4959375;28;20042;-66
2022/09/22 01:57:57;;;;;;;4.88;2.80;;;8.90;98.20;;;;;;4982763;28;20065;-66
2022/09/22 02:00:23;;;;;;;4.40;2.20;;;9.00;98.10;;;;;;4982647;28;20047;-65
2022/09/22 02:03:08;;;;;;;4.07;2.15;;;8.90;98.00;;;;;;4973579;28;20089;-65
2022/09/22 02:05:40;;;;;;;6.00;2.55;;;8.90;98.00;;;;;;4957666;28;20046;-66
2022/09/22 02:08:16;;;;;;;6.35;2.40;;;8.90;98.10;;;;;;4966225;28;20402;-66
2022/09/22 02:10:43;;;;;;;6.25;2.38;;;8.90;98.30;;;;;;4975238;28;20054;-71
2022/09/22 02:13:08;;;;;;;5.35;2.30;;;8.80;98.40;;;;;;4915897;28;20446;-66
2022/09/22 02:18:26;;;;;;;6.22;2.75;;;8.80;98.40;;;;;;4976079;28;20112;-66
2022/09/22 02:20:52;;;;;;;5.40;2.10;;;8.80;98.40;;;;;;4948313;28;20475;-66
2022/09/22 02:23:19;;;;;;;5.00;2.30;;;8.80;98.30;;;;;;4962202;28;20062;-66
2022/09/22 02:25:45;;;;;;;6.95;3.10;;;8.70;98.40;;;;;;4972858;28;20056;-66
2022/09/22 02:28:13;;;;;;;6.53;3.00;;;8.70;98.60;;;;;;4961366;28;20059;-66
2022/09/22 02:30:40;;;;;;;6.40;2.63;;;8.70;98.70;;;;;;4952039;28;20177;-65
2022/09/22 02:33:06;;;;;;;6.18;2.47;;;8.70;98.60;;;;;;4955974;28;20117;-67
2022/09/22 02:35:34;;;;;;;7.45;2.55;;;8.80;98.50;;;;;;4963541;28;20130;-66
2022/09/22 02:38:10;;;;;;;6.45;2.63;;;8.80;98.60;;;;;;4953833;28;20050;-66
2022/09/22 02:40:47;;;;;;;5.40;2.47;;;8.80;98.60;;;;;;4967062;28;20546;-66
2022/09/22 02:43:36;;;;;;;4.50;2.38;;;8.80;98.40;;;;;;4976128;28;20047;-66
2022/09/22 02:46:15;;;;;;;5.68;2.50;;;8.80;98.30;;;;;;4961962;28;20050;-67
2022/09/22 02:49:14;;;;;;;4.72;2.50;;;8.70;98.40;;;;;;4981234;28;20120;-66
2022/09/22 02:51:40;;;;;;;6.90;2.25;;;8.70;98.40;;;;;;4976234;28;20086;-67
2022/09/22 02:54:06;;;;;;;6.85;2.30;;;8.60;98.50;;;;;;4959288;28;20042;-66
2022/09/22 02:56:32;;;;;;;5.10;2.60;;;8.70;98.30;;;;;;4973575;28;20046;-66
2022/09/22 02:58:59;;;;;;;5.15;2.63;;;8.60;98.50;;;;;;4962082;28;20101;-66
2022/09/22 03:01:25;;;;;;;8.00;2.40;;;8.60;98.60;;;;;;4960707;28;20054;-66
2022/09/22 03:03:52;;;;;;;6.95;2.70;;;8.60;98.50;;;;;;4972302;28;20065;-66
2022/09/22 03:06:18;;;;;;;6.72;2.25;;;8.60;98.60;;;;;;4981614;28;20042;-67
2022/09/22 03:08:44;;;;;;;8.45;2.70;;;8.60;98.50;;;;;;4977338;28;20073;-67
2022/09/22 03:11:09;;;;;;;6.47;2.72;;;8.60;98.60;;;;;;4961392;28;20065;-66
2022/09/22 03:13:35;;;;;;;5.85;2.50;;;8.50;98.80;;;;;;4956658;28;20051;-67
2022/09/22 03:16:01;;;;;;;11.90;2.80;;;8.50;98.70;;;;;;4957540;28;20769;-66
2022/09/22 03:18:26;;;;;;;7.82;2.83;;;8.50;98.80;;;;;;4971108;28;20051;-67
2022/09/22 03:20:52;;;;;;;5.78;2.80;;;8.50;98.80;;;;;;4950719;28;20055;-67
2022/09/22 03:23:18;;;;;;;6.95;2.72;;;8.50;98.90;;;;;;4970005;28;20391;-66
2022/09/22 03:25:43;;;;;;;7.60;3.10;;;8.50;98.80;;;;;;4970786;28;20577;-66
2022/09/22 03:28:09;;;;;;;7.10;3.03;;;8.50;98.80;;;;;;4961247;28;20436;-66
2022/09/22 03:30:36;;;;;;;7.40;2.40;;;8.40;98.80;;;;;;4958982;28;20104;-66
2022/09/22 03:33:01;;;;;;;4.97;2.45;;;8.40;98.70;;;;;;4978639;28;20092;-66
2022/09/22 03:35:27;;;;;;;8.95;2.65;;;8.40;98.60;;;;;;4926177;28;20625;-66
2022/09/22 03:37:54;;;;;;;7.18;2.95;;;8.30;98.80;;;;;;4967423;28;20050;-66
2022/09/22 03:40:21;;;;;;;8.80;3.10;;;8.30;98.90;;;;;;4968157;28;20057;-66
2022/09/22 03:42:47;;;;;;;7.38;2.97;;;8.30;98.80;;;;;;4969070;28;20095;-67
2022/09/22 03:45:13;;;;;;;8.85;3.25;;;8.30;98.90;;;;;;4980348;28;20054;-66
2022/09/22 03:47:39;;;;;;;6.53;3.20;;;8.20;98.90;;;;;;4966096;28;20874;-66
2022/09/22 03:50:06;;;;;;;4.97;2.72;;;8.20;98.90;;;;;;4966133;28;20070;-66
2022/09/22 03:52:32;;;;;;;7.95;2.97;;;8.20;99.10;;;;;;4977992;28;20812;-66
2022/09/22 03:54:58;;;;;;;7.10;2.75;;;8.20;99.10;;;;;;4965474;28;20046;-67
2022/09/22 03:57:24;;;;;;;7.03;3.00;;;8.20;99.10;;;;;;4976492;28;20054;-67
2022/09/22 03:59:51;;;;;;;4.50;2.55;;;8.20;99.10;;;;;;4962520;28;20464;-66
2022/09/22 04:02:17;;;;;;;8.50;3.10;;;8.20;99.10;;;;;;4951830;28;20059;-66
2022/09/22 04:04:43;;;;;;;6.53;2.75;;;8.30;99.20;;;;;;4960384;28;20068;-66
2022/09/22 04:07:09;;;;;;;5.90;3.00;;;8.30;99.10;;;;;;4959887;28;20058;-66
2022/09/22 04:09:35;;;;;;;6.72;2.70;;;8.30;99.10;;;;;;4967674;28;20128;-67
2022/09/22 04:12:01;;;;;;;4.90;2.75;;;8.30;99.30;;;;;;4961834;28;20109;-68
2022/09/22 04:14:26;;;;;;;9.35;3.05;;;8.30;99.20;;;;;;4975530;28;20063;-68
2022/09/22 04:16:52;;;;;;;5.35;2.55;;;8.40;98.90;;;;;;4979789;28;20043;-68
2022/09/22 04:19:19;;;;;;;6.70;2.58;;;8.30;98.70;;;;;;4934896;28;20109;-68
2022/09/22 04:21:44;;;;;;;5.82;2.65;;;8.30;98.80;;;;;;4968026;28;20137;-68
2022/09/22 04:24:10;;;;;;;7.82;2.70;;;8.20;98.80;;;;;;4973081;28;20503;-68
2022/09/22 04:26:38;;;;;;;5.82;2.85;;;8.10;99.10;;;;;;4962905;28;20543;-69
2022/09/22 04:29:03;;;;;;;5.50;2.60;;;8.10;99.00;;;;;;4960096;28;20053;-69
2022/09/22 04:31:29;;;;;;;8.30;2.80;;;8.10;99.10;;;;;;4972097;28;20058;-69
2022/09/22 04:33:55;;;;;;;8.00;3.05;;;8.20;99.20;;;;;;4941226;28;20043;-68
2022/09/22 04:36:21;;;;;;;7.57;2.70;;;8.20;99.00;;;;;;4955409;28;20182;-68
2022/09/22 04:38:47;;;;;;;7.72;3.20;;;8.20;99.20;;;;;;4964444;28;20069;-69
2022/09/22 04:41:12;;;;;;;8.20;2.70;;;8.20;99.20;;;;;;4971005;28;20046;-69
2022/09/22 04:43:38;;;;;;;6.82;2.90;;;8.20;99.20;;;;;;4964332;28;20057;-67
2022/09/22 04:46:04;;;;;;;10.48;3.05;;;8.20;99.50;;;;;;4960824;28;20458;-66
2022/09/22 04:48:30;;;;;;;6.03;2.92;;;8.20;99.50;;;;;;4955777;28;20049;-66
2022/09/22 04:50:56;;;;;;;7.15;2.90;;;8.20;99.60;;;;;;4971217;28;20053;-67
2022/09/22 04:53:22;;;;;;;6.32;2.90;;;8.20;99.30;;;;;;4960200;28;20047;-67
2022/09/22 04:55:50;;;;;;;8.57;3.30;;;8.30;99.10;;;;;;4969488;28;20057;-68
2022/09/22 04:58:16;;;;;;;5.85;2.47;;;8.20;99.10;;;;;;4972401;28;20070;-67
2022/09/22 05:00:42;;;;;;;5.53;2.40;;;8.20;99.20;;;;;;4978454;28;20086;-68
2022/09/22 05:03:11;;;;;;;4.55;2.55;;;8.20;99.00;;;;;;4940196;28;20157;-68
2022/09/22 05:05:37;;;;;;;5.53;2.50;;;8.20;98.90;;;;;;4968822;28;20055;-68
2022/09/22 05:08:04;;;;;;;6.10;2.40;;;8.10;99.00;;;;;;4964445;28;20753;-67
2022/09/22 05:10:33;;;;;;;5.80;2.60;;;8.10;99.00;;;;;;4953369;28;20232;-67
2022/09/22 05:13:01;;;;;;;4.47;2.33;;;8.10;99.00;;;;;;4973514;28;20295;-67
2022/09/22 05:15:32;;;;;;;7.50;2.72;;;8.20;98.90;;;;;;4968905;28;20042;-66
2022/09/22 05:17:58;;;;;;;9.93;2.97;;;8.20;98.80;;;;;;4960163;28;20070;-67
2022/09/22 05:20:25;;;;;;;8.27;2.45;;;8.20;98.80;;;;;;4965593;28;20081;-68
2022/09/22 05:22:52;;;;;;;5.00;2.58;;;8.10;98.80;;;;;;4961396;28;20435;-67
2022/09/22 05:25:19;;;;;;;4.20;2.67;;;8.00;98.70;;;;;;4972930;28;20051;-66
2022/09/22 05:27:50;;;;;;;5.78;2.67;;;8.00;98.70;;;;;;4928978;28;20050;-66
2022/09/22 05:30:18;;;;;;;6.90;2.60;;;8.00;98.80;;;;;;4964695;28;20141;-67
2022/09/22 05:32:48;;;;;;;5.68;2.70;;;8.00;98.80;;;;;;4979808;28;20157;-67
2022/09/22 05:35:18;;;;;;;4.78;2.70;;;7.90;99.00;;;;;;4948857;28;20476;-63
2022/09/22 05:37:48;;;;;;;7.63;2.92;;;8.00;99.20;;;;;;4965549;28;20123;-66
2022/09/22 05:40:14;;;;;;;9.27;2.75;;;8.00;99.60;;;;;;4957067;28;20046;-68
2022/09/22 05:42:45;;;;;;;9.23;2.55;;;8.10;99.30;;;;;;4952368;28;20146;-69
2022/09/22 05:45:10;;;;;;;7.45;2.70;;;8.10;99.00;;;;;;4971154;28;20368;-69
2022/09/22 05:47:36;;;;;;;5.82;3.13;;;8.10;99.10;;;;;;4943200;28;20058;-69
2022/09/22 05:50:03;;;;;;;7.22;3.00;;;8.20;99.10;;;;;;4974188;28;20153;-69
2022/09/22 05:52:28;;;;;;;6.28;3.10;;;8.20;99.00;;;;;;4955875;28;20120;-69
2022/09/22 05:54:54;;;;;;;6.25;2.97;;;8.20;99.00;;;;;;4974416;28;20090;-68
2022/09/22 05:57:24;;;;;;;4.70;2.63;;;8.20;98.90;;;;;;4973522;28;20136;-68
2022/09/22 05:59:51;;;;;;;5.95;2.55;;;8.20;99.00;;;;;;4971982;28;20499;-69
2022/09/22 06:02:17;;;;;;;8.88;3.67;;;8.20;99.30;;;;;;4975343;28;20050;-68
2022/09/22 06:04:44;;;;;;;5.22;3.00;;;8.20;99.20;;;;;;4980228;28;20050;-68
2022/09/22 06:07:09;;;;;;;6.40;2.63;;;8.30;99.10;;;;;;4950790;28;20467;-69
2022/09/22 06:09:36;;;;;;;4.40;2.65;;;8.30;99.20;;;;;;4970726;28;20069;-69
2022/09/22 06:12:02;;;;;;;5.28;2.58;;;8.30;99.10;;;;;;4957916;28;20058;-69
2022/09/22 06:14:28;;;;;;;6.82;3.10;;;8.30;99.50;;;;;;4969175;28;20054;-68
2022/09/22 06:16:54;;;;;;;7.75;2.47;;;8.40;99.50;;;;;;4971559;28;20138;-68
2022/09/22 06:19:21;;;;;;;7.57;3.00;;;8.40;99.40;;;;;;4964539;28;20062;-69
2022/09/22 06:21:47;;;;;;;4.55;2.72;;;8.40;99.40;;;;;;4964082;28;20078;-67
2022/09/22 06:24:13;;;;;;;8.30;2.67;;;8.50;99.40;;;;;;4974012;28;20053;-70
2022/09/22 06:26:39;;;;;;;6.80;2.80;;;8.60;99.50;;;;;;4972503;28;20046;-70
2022/09/22 06:29:05;;;;;;;8.02;2.80;;;8.60;99.50;;;;;;4973706;28;20072;-68
2022/09/22 06:31:31;;;;;;;4.60;2.38;;;8.60;99.40;;;;;;4972674;28;20061;-68
2022/09/22 06:33:56;;;;;;;7.03;2.63;;;8.70;99.40;;;;;;4968906;28;20058;-68
2022/09/22 06:36:32;;;;;;;6.03;2.42;;;8.70;99.50;;;;;;4973703;28;20059;-68
2022/09/22 06:38:58;;;;;;;8.02;2.95;;;8.70;99.60;;;;;;4952284;28;20070;-69
2022/09/22 06:41:40;;;;;;;6.50;2.90;;;8.80;99.60;;;;;;4978061;28;20042;-67
2022/09/22 06:44:11;;;;;;;10.52;3.08;;;8.80;99.50;;;;;;4962449;28;20450;-68
2022/09/22 06:46:38;;;;;;;6.82;3.40;;;8.90;99.50;;;;;;4970079;28;20054;-67
2022/09/22 06:49:05;;;;;;;6.90;3.08;;;8.90;99.50;;;;;;4966463;28;20050;-66
2022/09/22 06:51:48;;;;;;;6.03;2.72;;;8.90;99.40;;;;;;4978286;28;20089;-67
2022/09/22 06:54:15;;;;;;;6.20;2.75;;;9.00;99.40;;;;;;4955820;28;20364;-67
2022/09/22 06:56:44;;;;;;;7.18;3.05;;;9.00;99.40;;;;;;4962062;28;20049;-66
2022/09/22 06:59:13;;;;;;;7.63;3.47;;;9.00;99.50;;;;;;4972783;28;20113;-67
2022/09/22 07:01:43;;;;;;;8.60;3.08;;;9.10;99.40;;;;;;4951152;28;20042;-67
2022/09/22 07:04:09;;;;;;;6.72;3.30;;;9.10;99.40;;;;;;4978871;28;20165;-68
2022/09/22 07:06:42;;;;;;;10.05;3.92;;;9.20;99.30;;;;;;4978039;28;20316;-68
2022/09/22 07:09:08;;;;;;;6.57;3.10;;;9.20;99.50;;;;;;4937543;28;20750;-68
2022/09/22 07:11:36;;;;;;;8.02;3.40;;;9.30;99.40;;;;;;4942123;28;20051;-67
2022/09/22 07:14:02;;;;;;;8.05;3.28;;;9.40;99.50;;;;;;4935751;28;20165;-68
2022/09/22 07:16:28;;;;;;;7.53;3.13;;;9.40;99.50;;;;;;4963939;28;20469;-67
2022/09/22 07:18:59;;;;;;;9.15;3.70;;;9.50;99.70;;;;;;4946553;28;20359;-68
2022/09/22 07:21:28;;;;;;;5.47;2.92;;;9.50;99.60;;;;;;4935133;28;20129;-66
2022/09/22 07:23:54;;;;;;;9.02;3.20;;;9.60;99.50;;;;;;4940991;28;20094;-68
2022/09/22 07:26:31;;;;;;;7.60;2.97;;;9.60;99.80;;;;;;4960215;28;20055;-68
2022/09/22 07:29:01;;;;;;;5.28;3.28;;;9.70;99.80;;;;;;4950861;28;20114;-67
2022/09/22 07:31:29;;;;;;;7.82;3.15;;;9.70;99.90;;;;;;4967971;28;20121;-67
2022/09/22 07:34:00;;;;;;;16.13;7.78;;;9.90;99.90;;;;;;4943274;29;20071;-68
2022/09/22 07:36:30;;;;;;;9.80;4.20;;;10.00;99.90;;;;;;4923411;28;20134;-68
2022/09/22 07:39:01;;;;;;;11.38;3.58;;;10.10;99.90;;;;;;4969546;28;20073;-68
2022/09/22 07:41:40;;;;;;;10.30;3.80;;;10.20;99.90;;;;;;4954895;28;20130;-67
2022/09/22 07:46:51;;;;;;;11.10;4.95;;;10.40;99.90;;;;;;4949609;28;20481;-65
2022/09/22 07:49:18;;;;;;;10.45;3.45;;;10.60;99.50;;;;;;4914276;28;20061;-71
2022/09/22 07:51:45;;;;;;;8.52;4.10;;;10.70;99.50;;;;;;4956035;28;20058;-71
2022/09/22 07:54:11;;;;;;;8.43;4.00;;;10.80;99.60;;;;;;4937336;28;20457;-71
2022/09/22 07:56:39;;;;;;;10.57;4.18;;;11.00;99.70;;;;;;4934668;29;20043;-71
2022/09/22 07:59:08;;;;;;;11.93;4.25;;;11.10;99.30;;;;;;4946474;28;20070;-71
2022/09/22 08:01:41;;;;;;;14.60;4.75;;;11.20;98.80;;;;;;4910425;29;20432;-71
2022/09/22 08:04:10;;;;;;;9.38;4.18;;;11.30;98.20;;;;;;4919677;28;20051;-72
2022/09/22 08:06:36;;;;;;;12.98;4.97;;;11.40;98.40;;;;;;4959243;28;20059;-71
2022/09/22 08:09:05;;;;;;;13.55;5.05;;;11.50;98.10;;;;;;4961834;28;20174;-72
2022/09/22 08:11:32;;;;;;;15.30;4.90;;;11.50;98.00;;;;;;4955882;28;20054;-71
2022/09/22 08:14:03;;;;;;;9.93;4.65;;;11.60;97.80;;;;;;4956006;28;20065;-71
2022/09/22 08:16:38;;;;;;;10.65;4.22;;;11.70;97.60;;;;;;4940278;28;20063;-71
2022/09/22 08:19:12;;;;;;;9.77;4.25;;;11.80;97.60;;;;;;4957999;28;20043;-71
2022/09/22 08:21:45;;;;;;;13.27;4.32;;;11.90;97.50;;;;;;4975735;28;20043;-71
2022/09/22 08:24:12;;;;;;;8.07;4.13;;;11.90;97.20;;;;;;4941605;28;20057;-72
2022/09/22 08:26:38;;;;;;;12.35;4.63;;;12.00;97.00;;;;;;4966104;28;20077;-72
2022/09/22 08:29:07;;;;;;;12.40;4.57;;;12.10;96.70;;;;;;4951675;28;20491;-71
2022/09/22 08:31:34;;;;;;;12.55;4.00;;;12.10;96.80;;;;;;4932549;28;20051;-71
2022/09/22 08:34:02;;;;;;;9.32;3.85;;;12.30;96.10;;;;;;4950339;28;20043;-71
2022/09/22 08:36:27;;;;;;;17.38;4.38;;;12.30;96.60;;;;;;4920363;28;20046;-71
2022/09/22 08:38:54;;;;;;;13.85;4.40;;;12.40;96.50;;;;;;4971529;28;20043;-71
2022/09/22 08:41:26;;;;;;;12.75;3.90;;;12.40;95.90;;;;;;4970027;28;20055;-71
2022/09/22 08:44:09;;;;;;;10.52;4.20;;;12.50;96.10;;;;;;4957328;28;20055;-71
2022/09/22 08:46:45;;;;;;;11.77;4.22;;;12.60;95.40;;;;;;4951823;28;20054;-71
2022/09/22 08:52:22;;;;;;;11.52;3.70;;;12.60;95.30;;;;;;4958767;28;20050;-71
2022/09/22 08:54:48;;;;;;;11.25;4.03;;;12.70;95.00;;;;;;4966857;28;20450;-72
2022/09/22 08:57:45;;;;;;;13.15;4.35;;;12.70;95.20;;;;;;4924365;28;20045;-73
2022/09/22 09:00:16;;;;;;;14.52;4.53;;;12.80;94.70;;;;;;4972076;28;21792;-71
2022/09/22 09:02:43;;;;;;;17.17;4.80;;;12.90;95.40;;;;;;4967587;28;20666;-71
2022/09/22 09:05:46;;;;;;;13.95;4.40;;;12.90;94.60;;;;;;4970221;28;20058;-71
2022/09/22 09:08:40;;;;;;;15.60;4.53;;;13.00;95.50;;;;;;4954548;28;20190;-71
2022/09/22 09:11:34;;;;;;;11.30;4.55;;;13.20;95.60;;;;;;4968467;28;20046;-70
2022/09/22 09:14:10;;;;;;;13.40;4.00;;;13.30;95.40;;;;;;4950983;28;20113;-70
2022/09/22 09:16:51;;;;;;;11.13;4.10;;;13.40;95.20;;;;;;4956909;28;20054;-71
2022/09/22 09:19:22;;;;;;;10.65;3.70;;;13.50;95.30;;;;;;4955498;28;20460;-71
2022/09/22 09:21:54;;;;;;;11.05;4.38;;;13.60;95.20;;;;;;4953134;28;20051;-71
2022/09/22 09:24:29;;;;;;;15.82;4.38;;;13.70;94.00;;;;;;4965625;28;20047;-71
2022/09/22 09:26:56;;;;;;;9.68;3.90;;;13.80;93.70;;;;;;4956451;28;20046;-71
2022/09/22 09:29:23;;;;;;;10.95;4.30;;;13.80;94.10;;;;;;4962619;28;20591;-71
2022/09/22 09:31:52;;;;;;;11.63;4.15;;;13.90;93.90;;;;;;4960085;28;20428;-71
2022/09/22 09:34:22;;;;;;;17.80;4.70;;;14.10;94.10;;;;;;4948512;28;20098;-71
2022/09/22 09:36:54;;;;;;;16.33;4.93;;;14.30;93.20;;;;;;4957137;28;20057;-71
2022/09/22 09:39:47;;;;;;;14.93;4.55;;;14.40;92.90;;;;;;4962951;28;20055;-71
2022/09/22 09:42:24;;;;;;;12.85;4.82;;;14.50;93.50;;;;;;4957631;28;20506;-71
2022/09/22 09:44:56;;;;;;;11.77;4.85;;;14.70;92.70;;;;;;4952327;28;20389;-71
2022/09/22 09:47:35;;;;;;;14.95;5.18;;;14.80;92.80;;;;;;4966408;28;20472;-72
2022/09/22 09:50:02;;;;;;;13.15;4.80;;;14.90;91.60;;;;;;4952427;28;20081;-71
2022/09/22 09:52:28;;;;;;;13.93;4.57;;;15.00;92.00;;;;;;4973427;28;20047;-71
2022/09/22 09:54:53;;;;;;;12.48;4.80;;;15.10;91.90;;;;;;4958963;28;20081;-71
2022/09/22 09:57:20;;;;;;;13.35;4.55;;;15.20;91.50;;;;;;4961640;28;20043;-71
2022/09/22 10:02:36;;;;;;;9.25;3.47;;;15.40;91.10;;;;;;4955727;28;20058;-71
2022/09/22 10:05:06;;;;;;;8.75;2.83;;;15.50;90.50;;;;;;4943405;28;20380;-71
2022/09/22 10:07:45;;;;;;;7.28;1.85;;;15.60;90.20;;;;;;4950496;28;20472;-70
2022/09/22 10:10:21;;;;;;;;;;;15.70;88.60;;;;;;4974019;28;20062;-71
2022/09/22 10:12:47;;;;;;;7.40;2.13;;;15.80;85.00;;;;;;4964854;28;19922;-71
2022/09/22 10:15:42;;;;;;;5.97;2.15;;;15.90;87.80;;;;;;4940263;28;20456;-71
2022/09/22 10:18:38;;;;;;;6.93;2.20;;;16.00;87.10;;;;;;4930092;28;20505;-71
2022/09/22 10:21:22;;;;;;;6.43;1.90;;;16.20;85.90;;;;;;4944661;28;20051;-72
2022/09/22 10:23:52;;;;;;;5.57;2.10;;;16.30;86.90;;;;;;4902031;29;20106;-71
2022/09/22 10:26:29;;;;;;;8.00;2.20;;;16.40;86.00;;;;;;4950365;28;20047;-71
2022/09/22 10:29:16;;;;;;;7.20;1.80;;;16.60;83.10;;;;;;4932759;29;20048;-71
2022/09/22 10:32:01;;;;;;;3.50;1.65;;;16.80;85.90;;;;;;4947937;29;20050;-71
2022/09/22 10:34:40;;;;;;;6.88;1.80;;;16.90;82.60;;;;;;4944264;29;20098;-71
2022/09/22 10:37:09;;;;;;;5.07;1.60;;;17.00;85.00;;;;;;4945129;29;20112;-71
2022/09/22 10:39:39;;;;;;;;;;;17.20;80.70;;;;;;4925609;29;20536;-71
2022/09/22 10:42:34;;;;;;;4.88;1.50;;;17.40;81.50;;;;;;4954671;28;19969;-71
2022/09/22 10:45:21;;;;;;;5.95;1.55;;;17.50;77.60;;;;;;4949407;29;20122;-71
2022/09/22 10:47:57;;;;;;;9.38;2.40;;;18.60;76.80;;;;;;4944874;29;20102;-72
2022/09/22 10:51:26;;;;;;;6.43;1.85;;;19.50;74.40;;;;;;4951663;28;20117;-71
2022/09/22 10:54:19;;;;;;;6.75;1.98;;;21.70;72.00;;;;;;4893514;29;20502;-71
2022/09/22 10:56:53;;;;;;;5.82;1.75;;;24.90;59.20;;;;;;4884757;29;20108;-71
2022/09/22 10:59:31;;;;;;;4.45;1.65;;;27.30;51.60;;;;;;4926383;29;20373;-71
2022/09/22 11:02:34;;;;;;;6.22;1.85;;;27.80;43.30;;;;;;4946816;29;20047;-71
2022/09/22 11:12:15;;;;;;;5.65;1.80;;;27.50;46.30;;;;;;4937213;29;20078;-72
2022/09/22 11:14:07;;;;;;;6.75;2.15;;;23.20;58.80;;;;;;4963231;28;20200;-71
2022/09/22 11:17:09;;;;;;;6.40;1.80;;;22.10;62.90;;;;;;4961041;28;20053;-70
2022/09/22 11:19:44;;;;;;;5.05;1.67;;;21.20;61.50;;;;;;4969398;28;20117;-71
2022/09/22 11:22:44;;;;;;;6.10;1.90;;;20.70;64.90;;;;;;4931213;28;20043;-70
2022/09/22 11:25:28;;;;;;;6.20;1.85;;;20.30;62.80;;;;;;4963253;28;21432;-71
2022/09/22 11:28:04;;;;;;;3.25;1.27;;;19.80;65.50;;;;;;4963184;28;20047;-71
2022/09/22 11:30:46;;;;;;;6.57;1.73;;;19.90;68.90;;;;;;4971075;28;20105;-70
2022/09/22 11:33:34;;;;;;;5.70;1.83;;;20.00;67.90;;;;;;4950025;28;20053;-71
2022/09/22 11:36:19;;;;;;;9.07;2.00;;;20.30;71.50;;;;;;4961240;28;20658;-70
2022/09/22 11:39:16;;;;;;;6.55;1.63;;;20.60;71.40;;;;;;4936220;29;20050;-71
2022/09/22 11:42:19;;;;;;;7.53;1.37;;;20.90;71.30;;;;;;4941243;28;20055;-70
2022/09/22 11:44:57;;;;;;;6.72;1.50;;;21.10;67.50;;;;;;4965534;28;20050;-75
2022/09/22 11:47:25;;;;;;;5.25;1.10;;;21.20;66.60;;;;;;4960509;28;20165;-75
2022/09/22 11:50:30;;;;;;;3.83;1.50;;;21.10;66.00;;;;;;4968051;28;20078;-75
2022/09/22 11:53:13;;;;;;;2.47;1.20;;;21.00;64.40;;;;;;4965186;28;20102;-75
2022/09/22 11:55:55;;;;;;;4.60;1.20;;;20.90;66.40;;;;;;4953329;28;20039;-75
2022/09/22 11:58:26;;;;;;;4.47;1.20;;;21.00;65.00;;;;;;4965144;28;20185;-75
2022/09/22 12:00:59;;;;;;;3.42;1.23;;;21.10;65.00;;;;;;4961280;28;20145;-75
2022/09/22 12:04:04;;;;;;;2.47;1.00;;;21.20;65.50;;;;;;4942000;28;20046;-75
2022/09/22 12:06:37;;;;;;;2.15;0.98;;;21.20;63.10;;;;;;4887567;29;20171;-75
2022/09/22 12:09:05;;;;;;;2.88;0.80;;;21.30;61.40;;;;;;4890657;29;20044;-75
2022/09/22 12:11:34;;;;;;;2.13;1.00;;;21.50;60.40;;;;;;4913865;28;20492;-75
2022/09/22 12:14:01;;;;;;;3.85;0.88;;;21.40;59.00;;;;;;4955417;28;20062;-75
2022/09/22 12:16:43;;;;;;;5.53;1.38;;;21.20;58.10;;;;;;4966422;28;20079;-75
2022/09/22 12:19:32;;;;;;;3.28;0.90;;;21.30;58.40;;;;;;4969894;28;20054;-75
2022/09/22 12:22:11;;;;;;;3.00;1.05;;;21.50;57.90;;;;;;4966284;28;20049;-75
2022/09/22 12:24:38;;;;;;;1.92;1.05;;;21.50;54.30;;;;;;4966522;28;20058;-75
2022/09/22 12:27:21;;;;;;;2.83;1.00;;;21.50;57.30;;;;;;4983344;28;20057;-75
2022/09/22 12:30:00;;;;;;;2.58;1.00;;;21.90;56.90;;;;;;4939820;28;20124;-75
2022/09/22 12:32:39;;;;;;;1.83;0.95;;;21.60;56.50;;;;;;4922119;28;20123;-75
2022/09/22 12:35:06;;;;;;;3.25;1.00;;;21.30;56.90;;;;;;4962051;28;20129;-75
2022/09/22 12:37:33;;;;;;;2.72;1.17;;;21.30;55.60;;;;;;4960874;28;20039;-75
2022/09/22 12:40:23;;;;;;;3.87;1.27;;;21.70;54.00;;;;;;4952950;28;20050;-75
2022/09/22 12:42:50;;;;;;;2.13;0.90;;;23.20;50.80;;;;;;4975696;28;20296;-76
2022/09/22 12:46:02;;;;;;;2.53;0.80;;;23.50;48.80;;;;;;4946435;28;20042;-75
2022/09/22 12:48:32;;;;;;;2.00;0.90;;;24.50;47.50;;;;;;4963516;28;20101;-76
2022/09/22 12:51:37;;;;;;;2.15;0.90;;;25.10;45.00;;;;;;4937262;28;20130;-75
2022/09/22 12:54:21;;;;;;;1.65;0.70;;;25.80;43.90;;;;;;4911009;29;20056;-75
2022/09/22 12:57:05;;;;;;;2.85;0.88;;;24.60;46.10;;;;;;4913516;29;20039;-75
2022/09/22 12:59:40;;;;;;;2.90;0.95;;;24.70;47.70;;;;;;4945718;28;20043;-76
2022/09/22 13:02:15;;;;;;;1.05;0.60;;;25.70;45.70;;;;;;4961239;28;20043;-76
2022/09/22 13:04:56;;;;;;;1.70;0.70;;;25.60;44.10;;;;;;4957980;28;20130;-75
2022/09/22 13:07:34;;;;;;;1.35;0.77;;;25.40;43.80;;;;;;4965114;28;20054;-75
2022/09/22 13:10:22;;;;;;;1.80;0.80;;;24.60;43.80;;;;;;4965371;28;20046;-75
2022/09/22 13:13:00;;;;;;;1.35;0.70;;;23.40;48.20;;;;;;4960248;28;20075;-75
2022/09/22 13:15:32;;;;;;;2.70;0.60;;;23.30;48.10;;;;;;4967402;28;20109;-75
2022/09/22 13:17:59;;;;;;;1.70;0.52;;;23.40;48.60;;;;;;4949513;28;20039;-75
2022/09/22 13:20:32;;;;;;;0.93;0.70;;;22.70;48.60;;;;;;4960430;28;20050;-75
2022/09/22 13:23:09;;;;;;;1.65;0.65;;;22.10;50.20;;;;;;4967535;28;20349;-72
2022/09/22 13:25:36;;;;;;;1.35;0.60;;;21.80;52.70;;;;;;4953430;28;20392;-72
2022/09/22 13:28:08;;;;;;;0.57;0.50;;;21.50;52.90;;;;;;4967398;28;20051;-72
2022/09/22 13:30:37;;;;;;;1.30;0.65;;;21.00;53.10;;;;;;4959896;28;20139;-72
2022/09/22 13:33:04;;;;;;;1.95;0.75;;;20.60;53.50;;;;;;4952480;28;20051;-72
2022/09/22 13:35:37;;;;;;;1.83;1.08;;;21.20;55.60;;;;;;4940772;28;20078;-72
2022/09/22 13:38:03;;;;;;;1.85;0.80;;;22.30;51.80;;;;;;4963173;28;20055;-74
2022/09/22 13:40:33;;;;;;;1.88;0.98;;;22.80;49.10;;;;;;4961671;28;20046;-73